sensor_id;sensor_type;location;lat;lon;timestamp;P1;durP1;ratioP1;P2;durP2;ratioP2
50932;SDS011;36921;49.006;9.292;2022-12-17T00:01:40;38.08;;;13.40;;
50932;SDS011;36921;49.006;9.292;2022-12-17T00:04:24;31.75;;;13.73;;
50932;SDS011;36921;49.006;9.292;2022-12-17T00:07:08;37.65;;;12.48;;
50932;SDS011;36921;49.006;9.292;2022-12-17T00:09:52;37.45;;;13.73;;
50932;SDS011;36921;49.006;9.292;2022-12-17T00:12:36;33.67;;;13.63;;
50932;SDS011;36921;49.006;9.292;2022-12-17T00:15:20;29.77;;;12.77;;
50932;SDS011;36921;49.006;9.292;2022-12-17T00:18:04;29.50;;;12.38;;
50932;SDS011;36921;49.006;9.292;2022-12-17T00:20:57;37.28;;;13.48;;
50932;SDS011;36921;49.006;9.292;2022-12-17T00:23:43;34.75;;;13.63;;
50932;SDS011;36921;49.006;9.292;2022-12-17T00:26:28;35.72;;;12.45;;
50932;SDS011;36921;49.006;9.292;2022-12-17T00:29:12;32.30;;;14.23;;
50932;SDS011;36921;49.006;9.292;2022-12-17T00:31:57;34.53;;;13.70;;
50932;SDS011;36921;49.006;9.292;2022-12-17T00:34:41;33.75;;;12.70;;
50932;SDS011;36921;49.006;9.292;2022-12-17T00:37:25;31.75;;;13.95;;
50932;SDS011;36921;49.006;9.292;2022-12-17T00:40:09;35.45;;;12.82;;
50932;SDS011;36921;49.006;9.292;2022-12-17T00:43:10;34.92;;;13.40;;
50932;SDS011;36921;49.006;9.292;2022-12-17T00:45:55;31.77;;;12.07;;
50932;SDS011;36921;49.006;9.292;2022-12-17T00:48:39;32.92;;;12.55;;
50932;SDS011;36921;49.006;9.292;2022-12-17T00:51:24;30.98;;;11.27;;
50932;SDS011;36921;49.006;9.292;2022-12-17T00:54:08;32.05;;;12.25;;
50932;SDS011;36921;49.006;9.292;2022-12-17T00:56:52;31.25;;;12.32;;
50932;SDS011;36921;49.006;9.292;2022-12-17T00:59:36;27.73;;;12.07;;
50932;SDS011;36921;49.006;9.292;2022-12-17T01:02:20;33.95;;;11.63;;
50932;SDS011;36921;49.006;9.292;2022-12-17T01:05:05;31.05;;;12.65;;
50932;SDS011;36921;49.006;9.292;2022-12-17T01:07:49;34.05;;;13.63;;
50932;SDS011;36921;49.006;9.292;2022-12-17T01:10:33;32.25;;;12.85;;
50932;SDS011;36921;49.006;9.292;2022-12-17T01:13:21;35.17;;;13.38;;
50932;SDS011;36921;49.006;9.292;2022-12-17T01:16:07;40.33;;;15.10;;
50932;SDS011;36921;49.006;9.292;2022-12-17T01:18:53;31.85;;;12.77;;
50932;SDS011;36921;49.006;9.292;2022-12-17T01:21:37;28.23;;;13.35;;
50932;SDS011;36921;49.006;9.292;2022-12-17T01:24:21;33.22;;;13.07;;
50932;SDS011;36921;49.006;9.292;2022-12-17T01:27:06;32.67;;;13.15;;
50932;SDS011;36921;49.006;9.292;2022-12-17T01:29:50;35.78;;;13.18;;
50932;SDS011;36921;49.006;9.292;2022-12-17T01:32:34;32.13;;;10.95;;
50932;SDS011;36921;49.006;9.292;2022-12-17T01:35:18;34.22;;;12.35;;
50932;SDS011;36921;49.006;9.292;2022-12-17T01:38:01;30.35;;;12.10;;
50932;SDS011;36921;49.006;9.292;2022-12-17T01:40:52;24.80;;;11.43;;
50932;SDS011;36921;49.006;9.292;2022-12-17T01:43:37;28.10;;;12.20;;
50932;SDS011;36921;49.006;9.292;2022-12-17T01:46:22;36.55;;;12.75;;
50932;SDS011;36921;49.006;9.292;2022-12-17T01:49:08;30.35;;;12.52;;
50932;SDS011;36921;49.006;9.292;2022-12-17T01:51:54;34.85;;;12.82;;
50932;SDS011;36921;49.006;9.292;2022-12-17T01:54:39;35.75;;;12.65;;
50932;SDS011;36921;49.006;9.292;2022-12-17T01:57:24;37.95;;;13.73;;
50932;SDS011;36921;49.006;9.292;2022-12-17T02:00:10;36.55;;;12.65;;
50932;SDS011;36921;49.006;9.292;2022-12-17T02:02:56;31.35;;;13.30;;
50932;SDS011;36921;49.006;9.292;2022-12-17T02:06:01;32.88;;;13.50;;
50932;SDS011;36921;49.006;9.292;2022-12-17T02:15:08;44.80;;;15.50;;
50932;SDS011;36921;49.006;9.292;2022-12-17T02:17:59;44.85;;;14.85;;
50932;SDS011;36921;49.006;9.292;2022-12-17T02:20:49;33.25;;;12.60;;
50932;SDS011;36921;49.006;9.292;2022-12-17T02:23:43;28.23;;;11.82;;
50932;SDS011;36921;49.006;9.292;2022-12-17T02:26:44;34.88;;;12.25;;
50932;SDS011;36921;49.006;9.292;2022-12-17T02:29:37;21.60;;;9.73;;
50932;SDS011;36921;49.006;9.292;2022-12-17T02:32:25;28.13;;;9.45;;
50932;SDS011;36921;49.006;9.292;2022-12-17T02:35:15;26.00;;;9.52;;
50932;SDS011;36921;49.006;9.292;2022-12-17T02:38:14;24.88;;;10.30;;
50932;SDS011;36921;49.006;9.292;2022-12-17T02:41:00;22.83;;;9.93;;
50932;SDS011;36921;49.006;9.292;2022-12-17T02:43:47;24.58;;;10.95;;
50932;SDS011;36921;49.006;9.292;2022-12-17T02:46:32;25.48;;;10.90;;
50932;SDS011;36921;49.006;9.292;2022-12-17T02:49:16;27.45;;;10.85;;
50932;SDS011;36921;49.006;9.292;2022-12-17T02:52:00;28.33;;;11.23;;
50932;SDS011;36921;49.006;9.292;2022-12-17T02:54:46;29.08;;;11.70;;
50932;SDS011;36921;49.006;9.292;2022-12-17T02:57:30;26.58;;;11.65;;
50932;SDS011;36921;49.006;9.292;2022-12-17T03:00:14;33.47;;;11.90;;
50932;SDS011;36921;49.006;9.292;2022-12-17T03:02:58;29.60;;;12.82;;
50932;SDS011;36921;49.006;9.292;2022-12-17T03:05:42;28.58;;;12.23;;
50932;SDS011;36921;49.006;9.292;2022-12-17T03:08:26;33.35;;;11.68;;
50932;SDS011;36921;49.006;9.292;2022-12-17T03:11:10;30.15;;;12.13;;
50932;SDS011;36921;49.006;9.292;2022-12-17T03:13:54;33.78;;;11.68;;
50932;SDS011;36921;49.006;9.292;2022-12-17T03:16:38;28.48;;;12.07;;
50932;SDS011;36921;49.006;9.292;2022-12-17T03:19:22;38.88;;;13.18;;
50932;SDS011;36921;49.006;9.292;2022-12-17T03:22:06;33.92;;;13.68;;
50932;SDS011;36921;49.006;9.292;2022-12-17T03:24:50;37.22;;;12.45;;
50932;SDS011;36921;49.006;9.292;2022-12-17T03:27:34;27.05;;;11.73;;
50932;SDS011;36921;49.006;9.292;2022-12-17T03:30:18;28.40;;;10.75;;
50932;SDS011;36921;49.006;9.292;2022-12-17T03:33:01;26.70;;;11.30;;
50932;SDS011;36921;49.006;9.292;2022-12-17T03:35:45;29.98;;;10.38;;
50932;SDS011;36921;49.006;9.292;2022-12-17T03:38:43;24.35;;;10.40;;
50932;SDS011;36921;49.006;9.292;2022-12-17T03:41:26;29.33;;;11.48;;
50932;SDS011;36921;49.006;9.292;2022-12-17T03:44:10;24.33;;;10.00;;
50932;SDS011;36921;49.006;9.292;2022-12-17T03:46:54;24.83;;;9.55;;
50932;SDS011;36921;49.006;9.292;2022-12-17T03:49:38;23.88;;;10.90;;
50932;SDS011;36921;49.006;9.292;2022-12-17T03:52:22;24.58;;;10.27;;
50932;SDS011;36921;49.006;9.292;2022-12-17T03:55:06;27.80;;;11.05;;
50932;SDS011;36921;49.006;9.292;2022-12-17T03:57:51;23.58;;;10.48;;
50932;SDS011;36921;49.006;9.292;2022-12-17T04:00:35;34.83;;;11.23;;
50932;SDS011;36921;49.006;9.292;2022-12-17T04:03:19;21.77;;;9.80;;
50932;SDS011;36921;49.006;9.292;2022-12-17T04:06:03;23.75;;;10.38;;
50932;SDS011;36921;49.006;9.292;2022-12-17T04:08:46;24.33;;;10.20;;
50932;SDS011;36921;49.006;9.292;2022-12-17T04:11:30;25.00;;;10.48;;
50932;SDS011;36921;49.006;9.292;2022-12-17T04:14:14;23.35;;;10.43;;
50932;SDS011;36921;49.006;9.292;2022-12-17T04:16:58;26.13;;;11.02;;
50932;SDS011;36921;49.006;9.292;2022-12-17T04:19:45;23.63;;;10.73;;
50932;SDS011;36921;49.006;9.292;2022-12-17T04:22:29;27.77;;;11.75;;
50932;SDS011;36921;49.006;9.292;2022-12-17T04:25:13;30.67;;;11.48;;
50932;SDS011;36921;49.006;9.292;2022-12-17T04:27:58;35.75;;;11.85;;
50932;SDS011;36921;49.006;9.292;2022-12-17T04:30:42;32.63;;;11.90;;
50932;SDS011;36921;49.006;9.292;2022-12-17T04:33:26;28.48;;;11.57;;
50932;SDS011;36921;49.006;9.292;2022-12-17T04:36:10;26.73;;;10.75;;
50932;SDS011;36921;49.006;9.292;2022-12-17T04:38:54;31.45;;;12.80;;
50932;SDS011;36921;49.006;9.292;2022-12-17T04:41:38;28.60;;;11.77;;
50932;SDS011;36921;49.006;9.292;2022-12-17T04:44:22;31.25;;;12.73;;
50932;SDS011;36921;49.006;9.292;2022-12-17T04:47:06;29.67;;;12.63;;
50932;SDS011;36921;49.006;9.292;2022-12-17T04:49:50;34.17;;;12.73;;
50932;SDS011;36921;49.006;9.292;2022-12-17T04:52:34;33.47;;;12.00;;
50932;SDS011;36921;49.006;9.292;2022-12-17T04:55:18;29.33;;;12.60;;
50932;SDS011;36921;49.006;9.292;2022-12-17T04:58:03;34.45;;;12.70;;
50932;SDS011;36921;49.006;9.292;2022-12-17T05:00:49;32.40;;;12.95;;
50932;SDS011;36921;49.006;9.292;2022-12-17T05:03:34;45.53;;;13.70;;
50932;SDS011;36921;49.006;9.292;2022-12-17T05:06:18;35.22;;;12.85;;
50932;SDS011;36921;49.006;9.292;2022-12-17T05:09:02;43.63;;;11.93;;
50932;SDS011;36921;49.006;9.292;2022-12-17T05:11:46;40.30;;;13.35;;
50932;SDS011;36921;49.006;9.292;2022-12-17T05:14:29;40.60;;;14.18;;
50932;SDS011;36921;49.006;9.292;2022-12-17T05:17:13;29.38;;;11.98;;
50932;SDS011;36921;49.006;9.292;2022-12-17T05:19:57;30.85;;;12.82;;
50932;SDS011;36921;49.006;9.292;2022-12-17T05:22:41;42.92;;;13.20;;
50932;SDS011;36921;49.006;9.292;2022-12-17T05:25:25;32.22;;;12.25;;
50932;SDS011;36921;49.006;9.292;2022-12-17T05:28:09;42.90;;;14.48;;
50932;SDS011;36921;49.006;9.292;2022-12-17T05:30:53;41.40;;;13.30;;
50932;SDS011;36921;49.006;9.292;2022-12-17T05:33:38;50.80;;;15.50;;
50932;SDS011;36921;49.006;9.292;2022-12-17T05:36:22;48.90;;;14.35;;
50932;SDS011;36921;49.006;9.292;2022-12-17T05:39:05;42.10;;;15.05;;
50932;SDS011;36921;49.006;9.292;2022-12-17T05:41:54;37.50;;;12.95;;
50932;SDS011;36921;49.006;9.292;2022-12-17T05:44:38;46.72;;;14.65;;
50932;SDS011;36921;49.006;9.292;2022-12-17T05:47:22;58.90;;;16.27;;
50932;SDS011;36921;49.006;9.292;2022-12-17T05:50:06;56.63;;;15.75;;
50932;SDS011;36921;49.006;9.292;2022-12-17T05:52:50;43.65;;;14.82;;
50932;SDS011;36921;49.006;9.292;2022-12-17T05:55:34;57.15;;;15.48;;
50932;SDS011;36921;49.006;9.292;2022-12-17T05:58:34;37.80;;;14.07;;
50932;SDS011;36921;49.006;9.292;2022-12-17T06:01:18;42.72;;;15.73;;
50932;SDS011;36921;49.006;9.292;2022-12-17T06:04:02;46.53;;;15.40;;
50932;SDS011;36921;49.006;9.292;2022-12-17T06:06:46;62.35;;;16.17;;
50932;SDS011;36921;49.006;9.292;2022-12-17T06:09:30;49.25;;;15.55;;
50932;SDS011;36921;49.006;9.292;2022-12-17T06:12:14;44.35;;;14.88;;
50932;SDS011;36921;49.006;9.292;2022-12-17T06:14:58;38.47;;;15.67;;
50932;SDS011;36921;49.006;9.292;2022-12-17T06:17:41;49.53;;;16.08;;
50932;SDS011;36921;49.006;9.292;2022-12-17T06:20:34;51.37;;;17.33;;
50932;SDS011;36921;49.006;9.292;2022-12-17T06:23:18;49.20;;;16.33;;
50932;SDS011;36921;49.006;9.292;2022-12-17T06:26:03;54.40;;;16.73;;
50932;SDS011;36921;49.006;9.292;2022-12-17T06:28:47;53.55;;;17.05;;
50932;SDS011;36921;49.006;9.292;2022-12-17T06:31:31;45.83;;;16.60;;
50932;SDS011;36921;49.006;9.292;2022-12-17T06:34:15;45.80;;;16.35;;
50932;SDS011;36921;49.006;9.292;2022-12-17T06:36:59;47.38;;;15.82;;
50932;SDS011;36921;49.006;9.292;2022-12-17T06:39:43;47.85;;;15.07;;
50932;SDS011;36921;49.006;9.292;2022-12-17T06:42:27;46.20;;;15.50;;
50932;SDS011;36921;49.006;9.292;2022-12-17T06:45:11;41.63;;;15.10;;
50932;SDS011;36921;49.006;9.292;2022-12-17T06:48:02;44.40;;;15.93;;
50932;SDS011;36921;49.006;9.292;2022-12-17T06:50:49;65.15;;;15.45;;
50932;SDS011;36921;49.006;9.292;2022-12-17T06:53:37;48.85;;;14.65;;
50932;SDS011;36921;49.006;9.292;2022-12-17T06:57:01;51.13;;;16.13;;
50932;SDS011;36921;49.006;9.292;2022-12-17T07:00:09;58.25;;;16.55;;
50932;SDS011;36921;49.006;9.292;2022-12-17T07:03:14;48.40;;;17.77;;
50932;SDS011;36921;49.006;9.292;2022-12-17T07:06:00;52.30;;;17.00;;
50932;SDS011;36921;49.006;9.292;2022-12-17T07:08:45;50.00;;;17.33;;
50932;SDS011;36921;49.006;9.292;2022-12-17T07:11:29;51.42;;;17.25;;
50932;SDS011;36921;49.006;9.292;2022-12-17T07:14:14;48.65;;;16.90;;
50932;SDS011;36921;49.006;9.292;2022-12-17T07:16:59;47.00;;;16.75;;
50932;SDS011;36921;49.006;9.292;2022-12-17T07:19:47;50.35;;;18.02;;
50932;SDS011;36921;49.006;9.292;2022-12-17T07:22:33;52.25;;;17.95;;
50932;SDS011;36921;49.006;9.292;2022-12-17T07:25:17;55.67;;;18.45;;
50932;SDS011;36921;49.006;9.292;2022-12-17T07:28:01;57.15;;;17.63;;
50932;SDS011;36921;49.006;9.292;2022-12-17T07:30:55;47.42;;;16.27;;
50932;SDS011;36921;49.006;9.292;2022-12-17T07:33:39;49.60;;;16.30;;
50932;SDS011;36921;49.006;9.292;2022-12-17T07:36:24;51.92;;;17.02;;
50932;SDS011;36921;49.006;9.292;2022-12-17T07:39:07;45.03;;;15.63;;
50932;SDS011;36921;49.006;9.292;2022-12-17T07:41:51;55.80;;;17.52;;
50932;SDS011;36921;49.006;9.292;2022-12-17T07:44:35;48.15;;;16.23;;
50932;SDS011;36921;49.006;9.292;2022-12-17T07:47:19;45.08;;;15.10;;
50932;SDS011;36921;49.006;9.292;2022-12-17T07:50:05;47.50;;;15.95;;
50932;SDS011;36921;49.006;9.292;2022-12-17T07:53:02;47.75;;;16.35;;
50932;SDS011;36921;49.006;9.292;2022-12-17T07:55:47;50.97;;;16.13;;
50932;SDS011;36921;49.006;9.292;2022-12-17T07:58:31;55.20;;;16.88;;
50932;SDS011;36921;49.006;9.292;2022-12-17T08:01:15;46.47;;;15.95;;
50932;SDS011;36921;49.006;9.292;2022-12-17T08:03:59;49.85;;;17.45;;
50932;SDS011;36921;49.006;9.292;2022-12-17T08:06:43;50.42;;;16.67;;
50932;SDS011;36921;49.006;9.292;2022-12-17T08:09:27;55.10;;;17.70;;
50932;SDS011;36921;49.006;9.292;2022-12-17T08:12:11;52.92;;;18.05;;
50932;SDS011;36921;49.006;9.292;2022-12-17T08:14:55;41.30;;;15.10;;
50932;SDS011;36921;49.006;9.292;2022-12-17T08:17:39;49.78;;;16.13;;
50932;SDS011;36921;49.006;9.292;2022-12-17T08:20:23;50.75;;;15.27;;
50932;SDS011;36921;49.006;9.292;2022-12-17T08:23:07;54.55;;;17.67;;
50932;SDS011;36921;49.006;9.292;2022-12-17T08:25:51;47.50;;;15.52;;
50932;SDS011;36921;49.006;9.292;2022-12-17T08:28:35;53.85;;;17.70;;
50932;SDS011;36921;49.006;9.292;2022-12-17T08:31:19;47.58;;;16.80;;
50932;SDS011;36921;49.006;9.292;2022-12-17T08:34:05;50.10;;;15.30;;
50932;SDS011;36921;49.006;9.292;2022-12-17T08:36:49;47.78;;;16.35;;
50932;SDS011;36921;49.006;9.292;2022-12-17T08:39:33;43.72;;;15.38;;
50932;SDS011;36921;49.006;9.292;2022-12-17T08:42:17;52.45;;;16.33;;
50932;SDS011;36921;49.006;9.292;2022-12-17T08:45:00;47.00;;;16.33;;
50932;SDS011;36921;49.006;9.292;2022-12-17T08:47:44;44.40;;;15.23;;
50932;SDS011;36921;49.006;9.292;2022-12-17T08:50:28;44.72;;;16.10;;
50932;SDS011;36921;49.006;9.292;2022-12-17T08:53:12;51.78;;;15.07;;
50932;SDS011;36921;49.006;9.292;2022-12-17T08:55:56;49.60;;;15.70;;
50932;SDS011;36921;49.006;9.292;2022-12-17T08:58:40;47.67;;;16.63;;
50932;SDS011;36921;49.006;9.292;2022-12-17T09:01:24;44.17;;;16.15;;
50932;SDS011;36921;49.006;9.292;2022-12-17T09:04:08;43.25;;;15.63;;
50932;SDS011;36921;49.006;9.292;2022-12-17T09:07:09;51.33;;;16.73;;
50932;SDS011;36921;49.006;9.292;2022-12-17T09:09:53;45.63;;;15.43;;
50932;SDS011;36921;49.006;9.292;2022-12-17T09:12:36;46.60;;;16.52;;
50932;SDS011;36921;49.006;9.292;2022-12-17T09:15:20;43.85;;;15.68;;
50932;SDS011;36921;49.006;9.292;2022-12-17T09:18:04;49.80;;;17.48;;
50932;SDS011;36921;49.006;9.292;2022-12-17T09:20:52;42.65;;;15.32;;
50932;SDS011;36921;49.006;9.292;2022-12-17T09:23:37;49.78;;;17.08;;
50932;SDS011;36921;49.006;9.292;2022-12-17T09:26:21;45.20;;;16.23;;
50932;SDS011;36921;49.006;9.292;2022-12-17T09:29:05;48.53;;;16.95;;
50932;SDS011;36921;49.006;9.292;2022-12-17T09:32:06;49.88;;;16.92;;
50932;SDS011;36921;49.006;9.292;2022-12-17T09:34:50;43.08;;;16.30;;
50932;SDS011;36921;49.006;9.292;2022-12-17T09:37:33;50.55;;;17.13;;
50932;SDS011;36921;49.006;9.292;2022-12-17T09:40:19;46.22;;;15.75;;
50932;SDS011;36921;49.006;9.292;2022-12-17T09:46:15;38.80;;;15.18;;
50932;SDS011;36921;49.006;9.292;2022-12-17T09:49:27;37.47;;;13.85;;
50932;SDS011;36921;49.006;9.292;2022-12-17T09:52:14;42.83;;;15.20;;
50932;SDS011;36921;49.006;9.292;2022-12-17T09:55:19;43.05;;;14.85;;
50932;SDS011;36921;49.006;9.292;2022-12-17T09:58:17;40.17;;;14.38;;
50932;SDS011;36921;49.006;9.292;2022-12-17T10:01:05;43.83;;;14.48;;
50932;SDS011;36921;49.006;9.292;2022-12-17T10:03:56;44.28;;;15.73;;
50932;SDS011;36921;49.006;9.292;2022-12-17T10:06:40;44.20;;;14.90;;
50932;SDS011;36921;49.006;9.292;2022-12-17T10:16:26;39.47;;;15.32;;
50932;SDS011;36921;49.006;9.292;2022-12-17T10:19:19;37.75;;;14.60;;
50932;SDS011;36921;49.006;9.292;2022-12-17T10:22:12;42.20;;;15.27;;
50932;SDS011;36921;49.006;9.292;2022-12-17T10:25:01;42.13;;;15.55;;
50932;SDS011;36921;49.006;9.292;2022-12-17T10:27:49;36.83;;;15.85;;
50932;SDS011;36921;49.006;9.292;2022-12-17T10:30:33;53.35;;;17.38;;
50932;SDS011;36921;49.006;9.292;2022-12-17T10:33:18;41.17;;;15.73;;
50932;SDS011;36921;49.006;9.292;2022-12-17T10:36:04;45.33;;;16.60;;
50932;SDS011;36921;49.006;9.292;2022-12-17T10:39:01;50.53;;;16.58;;
50932;SDS011;36921;49.006;9.292;2022-12-17T10:41:45;41.03;;;16.45;;
50932;SDS011;36921;49.006;9.292;2022-12-17T10:44:33;40.67;;;16.98;;
50932;SDS011;36921;49.006;9.292;2022-12-17T10:47:19;40.63;;;15.95;;
50932;SDS011;36921;49.006;9.292;2022-12-17T10:52:56;39.30;;;15.05;;
50932;SDS011;36921;49.006;9.292;2022-12-17T10:55:48;46.70;;;17.48;;
50932;SDS011;36921;49.006;9.292;2022-12-17T10:58:34;51.95;;;17.33;;
50932;SDS011;36921;49.006;9.292;2022-12-17T11:01:22;52.47;;;18.00;;
50932;SDS011;36921;49.006;9.292;2022-12-17T11:07:12;47.25;;;17.67;;
50932;SDS011;36921;49.006;9.292;2022-12-17T11:10:04;46.53;;;17.23;;
50932;SDS011;36921;49.006;9.292;2022-12-17T11:12:51;48.38;;;18.67;;
50932;SDS011;36921;49.006;9.292;2022-12-17T11:15:41;42.75;;;17.77;;
50932;SDS011;36921;49.006;9.292;2022-12-17T11:18:48;41.35;;;17.75;;
50932;SDS011;36921;49.006;9.292;2022-12-17T11:21:38;47.85;;;17.35;;
50932;SDS011;36921;49.006;9.292;2022-12-17T11:24:41;48.60;;;16.20;;
50932;SDS011;36921;49.006;9.292;2022-12-17T11:27:30;39.72;;;15.93;;
50932;SDS011;36921;49.006;9.292;2022-12-17T11:30:18;44.70;;;16.55;;
50932;SDS011;36921;49.006;9.292;2022-12-17T11:38:41;42.35;;;17.00;;
50932;SDS011;36921;49.006;9.292;2022-12-17T11:52:44;41.35;;;18.40;;
50932;SDS011;36921;49.006;9.292;2022-12-17T11:55:41;39.08;;;17.25;;
50932;SDS011;36921;49.006;9.292;2022-12-17T11:58:49;35.47;;;17.10;;
50932;SDS011;36921;49.006;9.292;2022-12-17T12:01:49;34.00;;;16.80;;
50932;SDS011;36921;49.006;9.292;2022-12-17T12:04:52;33.80;;;16.17;;
50932;SDS011;36921;49.006;9.292;2022-12-17T12:07:41;35.13;;;18.02;;
50932;SDS011;36921;49.006;9.292;2022-12-17T12:10:48;34.58;;;18.50;;
50932;SDS011;36921;49.006;9.292;2022-12-17T12:13:52;38.13;;;20.20;;
50932;SDS011;36921;49.006;9.292;2022-12-17T12:16:49;34.22;;;18.92;;
50932;SDS011;36921;49.006;9.292;2022-12-17T12:32:09;41.75;;;18.08;;
50932;SDS011;36921;49.006;9.292;2022-12-17T12:35:02;41.15;;;20.15;;
50932;SDS011;36921;49.006;9.292;2022-12-17T12:37:47;41.28;;;19.48;;
50932;SDS011;36921;49.006;9.292;2022-12-17T12:43:30;43.33;;;20.30;;
50932;SDS011;36921;49.006;9.292;2022-12-17T12:46:31;42.22;;;19.02;;
50932;SDS011;36921;49.006;9.292;2022-12-17T12:52:20;41.50;;;17.23;;
50932;SDS011;36921;49.006;9.292;2022-12-17T12:55:07;43.83;;;18.95;;
50932;SDS011;36921;49.006;9.292;2022-12-17T12:57:56;42.55;;;17.70;;
50932;SDS011;36921;49.006;9.292;2022-12-17T13:03:38;41.90;;;18.70;;
50932;SDS011;36921;49.006;9.292;2022-12-17T13:11:42;44.72;;;19.58;;
50932;SDS011;36921;49.006;9.292;2022-12-17T13:14:20;41.08;;;17.98;;
50932;SDS011;36921;49.006;9.292;2022-12-17T13:16:53;44.92;;;19.85;;
50932;SDS011;36921;49.006;9.292;2022-12-17T13:24:40;42.65;;;20.20;;
50932;SDS011;36921;49.006;9.292;2022-12-17T13:29:55;41.83;;;20.37;;
50932;SDS011;36921;49.006;9.292;2022-12-17T13:32:23;46.95;;;22.48;;
50932;SDS011;36921;49.006;9.292;2022-12-17T13:38:17;44.17;;;20.60;;
50932;SDS011;36921;49.006;9.292;2022-12-17T13:43:26;42.25;;;20.38;;
50932;SDS011;36921;49.006;9.292;2022-12-17T13:45:57;46.08;;;20.77;;
50932;SDS011;36921;49.006;9.292;2022-12-17T13:48:24;43.67;;;20.13;;
50932;SDS011;36921;49.006;9.292;2022-12-17T13:51:01;42.63;;;19.23;;
50932;SDS011;36921;49.006;9.292;2022-12-17T13:53:29;46.33;;;19.60;;
50932;SDS011;36921;49.006;9.292;2022-12-17T13:55:58;46.58;;;22.15;;
50932;SDS011;36921;49.006;9.292;2022-12-17T13:58:28;41.58;;;19.65;;
50932;SDS011;36921;49.006;9.292;2022-12-17T14:01:11;41.63;;;18.73;;
50932;SDS011;36921;49.006;9.292;2022-12-17T14:03:36;42.63;;;20.25;;
50932;SDS011;36921;49.006;9.292;2022-12-17T14:06:06;46.63;;;20.90;;
50932;SDS011;36921;49.006;9.292;2022-12-17T14:08:35;41.72;;;19.08;;
50932;SDS011;36921;49.006;9.292;2022-12-17T14:11:00;47.92;;;19.00;;
50932;SDS011;36921;49.006;9.292;2022-12-17T14:13:45;52.38;;;21.63;;
50932;SDS011;36921;49.006;9.292;2022-12-17T14:16:14;48.80;;;21.63;;
50932;SDS011;36921;49.006;9.292;2022-12-17T14:18:41;42.38;;;20.38;;
50932;SDS011;36921;49.006;9.292;2022-12-17T14:21:11;46.60;;;19.10;;
50932;SDS011;36921;49.006;9.292;2022-12-17T14:23:37;47.78;;;20.13;;
50932;SDS011;36921;49.006;9.292;2022-12-17T14:26:04;46.13;;;19.25;;
50932;SDS011;36921;49.006;9.292;2022-12-17T14:28:31;46.65;;;20.00;;
50932;SDS011;36921;49.006;9.292;2022-12-17T14:33:39;49.03;;;19.50;;
50932;SDS011;36921;49.006;9.292;2022-12-17T14:36:06;55.75;;;20.55;;
50932;SDS011;36921;49.006;9.292;2022-12-17T14:39:00;45.60;;;18.88;;
50932;SDS011;36921;49.006;9.292;2022-12-17T14:41:28;47.42;;;19.17;;
50932;SDS011;36921;49.006;9.292;2022-12-17T14:44:21;49.42;;;19.60;;
50932;SDS011;36921;49.006;9.292;2022-12-17T14:49:17;49.35;;;18.98;;
50932;SDS011;36921;49.006;9.292;2022-12-17T14:51:44;50.10;;;21.10;;
50932;SDS011;36921;49.006;9.292;2022-12-17T14:56:37;51.57;;;20.17;;
50932;SDS011;36921;49.006;9.292;2022-12-17T14:59:04;49.63;;;19.08;;
50932;SDS011;36921;49.006;9.292;2022-12-17T15:01:29;46.92;;;18.98;;
50932;SDS011;36921;49.006;9.292;2022-12-17T15:03:55;51.45;;;18.55;;
50932;SDS011;36921;49.006;9.292;2022-12-17T15:06:20;46.67;;;20.15;;
50932;SDS011;36921;49.006;9.292;2022-12-17T15:08:47;49.47;;;19.48;;
50932;SDS011;36921;49.006;9.292;2022-12-17T15:11:15;51.25;;;18.45;;
50932;SDS011;36921;49.006;9.292;2022-12-17T15:13:42;49.85;;;19.80;;
50932;SDS011;36921;49.006;9.292;2022-12-17T15:16:08;54.60;;;19.63;;
50932;SDS011;36921;49.006;9.292;2022-12-17T15:18:34;45.88;;;18.40;;
50932;SDS011;36921;49.006;9.292;2022-12-17T15:21:00;58.35;;;18.73;;
50932;SDS011;36921;49.006;9.292;2022-12-17T15:23:26;54.22;;;19.48;;
50932;SDS011;36921;49.006;9.292;2022-12-17T15:25:51;59.95;;;20.75;;
50932;SDS011;36921;49.006;9.292;2022-12-17T15:28:18;60.38;;;21.77;;
50932;SDS011;36921;49.006;9.292;2022-12-17T15:30:45;52.22;;;19.05;;
50932;SDS011;36921;49.006;9.292;2022-12-17T15:33:12;56.60;;;20.65;;
50932;SDS011;36921;49.006;9.292;2022-12-17T15:35:38;53.97;;;19.95;;
50932;SDS011;36921;49.006;9.292;2022-12-17T15:38:04;60.40;;;20.83;;
50932;SDS011;36921;49.006;9.292;2022-12-17T15:40:30;52.47;;;19.80;;
50932;SDS011;36921;49.006;9.292;2022-12-17T15:42:55;65.97;;;23.38;;
50932;SDS011;36921;49.006;9.292;2022-12-17T15:45:37;68.97;;;23.83;;
50932;SDS011;36921;49.006;9.292;2022-12-17T15:48:06;68.45;;;24.23;;
50932;SDS011;36921;49.006;9.292;2022-12-17T15:50:32;70.43;;;24.67;;
50932;SDS011;36921;49.006;9.292;2022-12-17T15:52:58;80.82;;;28.63;;
50932;SDS011;36921;49.006;9.292;2022-12-17T15:55:23;97.15;;;32.08;;
50932;SDS011;36921;49.006;9.292;2022-12-17T15:57:48;90.07;;;31.25;;
50932;SDS011;36921;49.006;9.292;2022-12-17T16:00:14;88.20;;;29.48;;
50932;SDS011;36921;49.006;9.292;2022-12-17T16:02:39;82.95;;;29.02;;
50932;SDS011;36921;49.006;9.292;2022-12-17T16:05:05;86.13;;;30.02;;
50932;SDS011;36921;49.006;9.292;2022-12-17T16:07:30;84.95;;;30.00;;
50932;SDS011;36921;49.006;9.292;2022-12-17T16:09:56;67.95;;;23.75;;
50932;SDS011;36921;49.006;9.292;2022-12-17T16:12:21;53.83;;;20.00;;
50932;SDS011;36921;49.006;9.292;2022-12-17T16:14:47;63.78;;;19.98;;
50932;SDS011;36921;49.006;9.292;2022-12-17T16:17:12;58.03;;;19.55;;
50932;SDS011;36921;49.006;9.292;2022-12-17T16:19:37;54.13;;;20.02;;
50932;SDS011;36921;49.006;9.292;2022-12-17T16:22:03;53.88;;;19.63;;
50932;SDS011;36921;49.006;9.292;2022-12-17T16:24:28;51.08;;;19.13;;
50932;SDS011;36921;49.006;9.292;2022-12-17T16:26:53;55.65;;;20.40;;
50932;SDS011;36921;49.006;9.292;2022-12-17T16:29:19;58.80;;;20.92;;
50932;SDS011;36921;49.006;9.292;2022-12-17T16:31:44;58.35;;;20.38;;
50932;SDS011;36921;49.006;9.292;2022-12-17T16:34:10;56.67;;;19.02;;
50932;SDS011;36921;49.006;9.292;2022-12-17T16:36:36;55.22;;;19.00;;
50932;SDS011;36921;49.006;9.292;2022-12-17T16:39:02;61.60;;;20.60;;
50932;SDS011;36921;49.006;9.292;2022-12-17T16:41:28;53.78;;;20.20;;
50932;SDS011;36921;49.006;9.292;2022-12-17T16:43:54;54.13;;;18.67;;
50932;SDS011;36921;49.006;9.292;2022-12-17T16:46:32;60.53;;;21.02;;
50932;SDS011;36921;49.006;9.292;2022-12-17T16:49:03;70.95;;;23.38;;
50932;SDS011;36921;49.006;9.292;2022-12-17T16:51:31;72.65;;;26.52;;
50932;SDS011;36921;49.006;9.292;2022-12-17T16:53:56;79.53;;;28.50;;
50932;SDS011;36921;49.006;9.292;2022-12-17T16:56:24;74.53;;;26.63;;
50932;SDS011;36921;49.006;9.292;2022-12-17T16:58:51;92.90;;;30.30;;
50932;SDS011;36921;49.006;9.292;2022-12-17T17:01:20;84.90;;;29.33;;
50932;SDS011;36921;49.006;9.292;2022-12-17T17:03:48;83.20;;;29.40;;
50932;SDS011;36921;49.006;9.292;2022-12-17T17:06:14;80.75;;;28.33;;
50932;SDS011;36921;49.006;9.292;2022-12-17T17:08:40;74.80;;;28.95;;
50932;SDS011;36921;49.006;9.292;2022-12-17T17:11:19;65.35;;;26.10;;
50932;SDS011;36921;49.006;9.292;2022-12-17T17:13:47;81.38;;;28.27;;
50932;SDS011;36921;49.006;9.292;2022-12-17T17:16:13;85.38;;;29.92;;